Time;durP1;ratioP1;P1;durP2;ratioP2;P2;SDS_P1;SDS_P2;PMS_P1;PMS_P2;Temp;Humidity;BMP_temperature;BMP_pressure;BME280_temperature;BME280_humidity;BME280_pressure;Samples;Min_cycle;Max_cycle;Signal;HPM_P1;HPM_P2
2022/05/19 00:01:08;;;;;;;3.90;3.20;;;;;;;16.08;96.26;96321.38;4992092;28;24919;-74
2022/05/19 00:03:36;;;;;;;3.08;2.70;;;;;;;16.07;96.50;96324.94;4993177;28;24461;-75
2022/05/19 00:06:04;;;;;;;3.88;2.80;;;;;;;16.06;95.98;96323.28;4992477;28;24421;-75
2022/05/19 00:08:30;;;;;;;5.55;3.50;;;;;;;16.05;97.26;96329.44;4992289;28;24421;-75
2022/05/19 00:11:00;;;;;;;8.55;3.08;;;;;;;16.04;98.02;96325.19;4991936;28;24448;-74
2022/05/19 00:13:29;;;;;;;4.88;3.00;;;;;;;16.04;97.39;96316.50;4992466;28;24484;-75
2022/05/19 00:15:58;;;;;;;3.47;2.70;;;;;;;16.07;97.17;96317.13;4992118;28;24428;-75
2022/05/19 00:18:24;;;;;;;4.75;2.97;;;;;;;16.07;97.46;96311.06;4992158;28;24421;-75
2022/05/19 00:20:51;;;;;;;5.05;2.90;;;;;;;16.02;97.32;96306.19;4992181;28;24436;-74
2022/05/19 00:23:18;;;;;;;4.72;3.10;;;;;;;16.06;95.33;96309.41;4992123;28;24425;-74
2022/05/19 00:25:46;;;;;;;6.27;3.40;;;;;;;15.97;95.73;96305.69;4992074;28;24476;-75
2022/05/19 00:28:12;;;;;;;4.45;3.20;;;;;;;15.81;97.78;96302.59;4995683;28;24819;-74
2022/05/19 00:30:39;;;;;;;4.68;3.08;;;;;;;15.70;99.02;96303.38;4996028;28;24437;-74
2022/05/19 00:33:08;;;;;;;4.25;2.92;;;;;;;15.68;99.08;96300.91;4996457;28;24484;-75
2022/05/19 00:35:35;;;;;;;4.43;3.10;;;;;;;15.63;97.59;96294.31;4995429;28;24441;-74
2022/05/19 00:38:02;;;;;;;4.43;3.10;;;;;;;15.67;95.33;96301.81;4995783;28;24436;-75
2022/05/19 00:40:28;;;;;;;3.73;2.63;;;;;;;15.50;97.88;96297.00;4995668;28;24432;-75
2022/05/19 00:42:55;;;;;;;6.40;2.93;;;;;;;15.36;99.21;96297.19;4995658;28;24464;-74
2022/05/19 00:45:24;;;;;;;3.70;2.90;;;;;;;15.30;98.00;96295.03;4995534;28;24425;-75
2022/05/19 00:47:56;;;;;;;4.40;2.85;;;;;;;15.26;99.65;96299.63;4995289;28;24942;-75
2022/05/19 00:50:28;;;;;;;5.13;3.05;;;;;;;15.24;99.18;96294.53;4995724;28;24437;-75
2022/05/19 00:53:02;;;;;;;6.07;3.28;;;;;;;15.22;98.95;96293.81;4995553;28;24413;-75
2022/05/19 00:58:57;;;;;;;3.33;2.80;;;;;;;15.03;100.00;96288.25;4995075;28;24440;-75
2022/05/19 01:01:23;;;;;;;3.88;2.65;;;;;;;15.05;100.00;96293.34;4995340;28;24417;-75
2022/05/19 01:03:55;;;;;;;4.18;3.10;;;;;;;15.07;100.00;96283.66;4995212;28;24429;-75
2022/05/19 01:06:25;;;;;;;4.13;2.90;;;;;;;14.92;100.00;96291.63;4995121;28;24857;-75
2022/05/19 01:08:56;;;;;;;3.50;2.83;;;;;;;14.86;100.00;96289.47;4995191;28;24470;-75
2022/05/19 01:11:23;;;;;;;6.30;3.40;;;;;;;14.86;100.00;96286.03;4995076;28;24442;-75
2022/05/19 01:13:51;;;;;;;4.40;3.10;;;;;;;14.93;100.00;96285.47;4994804;28;24964;-75
2022/05/19 01:16:18;;;;;;;3.58;2.70;;;;;;;14.99;100.00;96289.44;4994992;28;24895;-75
2022/05/19 01:18:46;;;;;;;3.97;2.95;;;;;;;15.06;100.00;96284.59;5011515;28;24420;-75
2022/05/19 01:21:16;;;;;;;3.25;2.53;;;;;;;15.03;100.00;96284.81;5010157;28;24424;-75
2022/05/19 01:23:56;;;;;;;6.57;3.25;;;;;;;14.98;100.00;96287.75;4995908;28;24428;-75
2022/05/19 01:26:36;;;;;;;3.10;2.40;;;;;;;14.99;100.00;96286.81;4995166;28;24421;-75
2022/05/19 01:29:03;;;;;;;4.57;3.30;;;;;;;14.99;100.00;96285.03;4995017;28;24417;-75
2022/05/19 01:31:33;;;;;;;7.60;3.58;;;;;;;14.90;100.00;96279.66;4994371;28;24998;-75
2022/05/19 01:34:02;;;;;;;3.15;2.85;;;;;;;14.96;98.65;96287.03;4994426;28;24935;-75
2022/05/19 01:36:29;;;;;;;3.58;2.90;;;;;;;14.73;100.00;96278.25;4994434;28;24483;-75
2022/05/19 01:39:01;;;;;;;3.17;2.80;;;;;;;14.73;100.00;96279.09;4994216;28;24962;-75
2022/05/19 01:41:38;;;;;;;3.25;2.75;;;;;;;14.74;100.00;96288.56;4994600;28;24412;-75
2022/05/19 01:44:20;;;;;;;7.00;3.42;;;;;;;14.77;100.00;96277.09;4994567;28;24413;-75
2022/05/19 01:46:53;;;;;;;7.55;3.00;;;;;;;14.80;100.00;96269.06;4994565;28;24452;-75
2022/05/19 01:49:28;;;;;;;3.33;2.75;;;;;;;14.79;100.00;96269.16;4994499;28;24428;-75
2022/05/19 01:52:00;;;;;;;3.10;2.80;;;;;;;14.88;99.85;96279.78;4994287;28;24515;-75
2022/05/19 01:54:34;;;;;;;3.93;3.10;;;;;;;14.71;100.00;96278.34;4994317;28;24448;-75
2022/05/19 01:57:03;;;;;;;3.78;2.75;;;;;;;14.61;100.00;96277.38;4994018;28;24753;-75
2022/05/19 01:59:38;;;;;;;5.15;3.10;;;;;;;14.62;100.00;96271.19;4994300;28;24436;-75
2022/05/19 02:02:11;;;;;;;5.27;3.27;;;;;;;14.59;100.00;96270.59;4994440;28;24405;-75
2022/05/19 02:04:46;;;;;;;3.60;3.10;;;;;;;14.40;100.00;96268.41;4994264;28;24432;-75
2022/05/19 02:07:16;;;;;;;4.22;2.90;;;;;;;14.35;100.00;96270.47;4993864;28;24423;-75
2022/05/19 02:09:49;;;;;;;3.75;2.90;;;;;;;14.29;100.00;96261.34;4993865;28;24401;-75
2022/05/19 02:12:15;;;;;;;7.83;3.43;;;;;;;14.38;100.00;96265.06;4993972;28;24433;-75
2022/05/19 02:14:47;;;;;;;3.23;2.93;;;;;;;14.16;100.00;96266.56;4993582;28;25043;-75
2022/05/19 02:17:17;;;;;;;3.05;2.72;;;;;;;14.14;100.00;96267.63;4993945;28;24421;-75
2022/05/19 02:19:48;;;;;;;4.22;3.05;;;;;;;14.08;100.00;96265.44;4993549;28;24969;-75
2022/05/19 02:22:17;;;;;;;3.30;2.97;;;;;;;14.11;100.00;96265.22;4993810;28;24413;-75
2022/05/19 02:24:57;;;;;;;3.78;3.22;;;;;;;14.08;100.00;96263.66;4993670;28;24479;-75
2022/05/19 02:27:31;;;;;;;3.17;2.88;;;;;;;14.18;100.00;96269.06;4993858;28;24413;-75
2022/05/19 02:30:01;;;;;;;3.85;2.75;;;;;;;14.27;100.00;96269.25;4993730;28;24416;-75
2022/05/19 02:32:27;;;;;;;5.88;2.95;;;;;;;14.27;100.00;96273.63;4993200;28;24975;-75
2022/05/19 02:34:54;;;;;;;4.85;3.35;;;;;;;14.19;100.00;96278.53;4993246;28;24433;-75
2022/05/19 02:37:20;;;;;;;3.97;2.80;;;;;;;14.04;100.00;96276.03;4994232;28;24516;-76
2022/05/19 02:39:47;;;;;;;3.38;2.92;;;;;;;14.03;100.00;96276.16;4993993;28;25008;-76
2022/05/19 02:42:13;;;;;;;3.90;2.75;;;;;;;14.05;100.00;96269.06;4994251;28;24409;-76
2022/05/19 02:44:40;;;;;;;3.75;2.80;;;;;;;14.02;100.00;96266.69;4994267;28;24452;-75
2022/05/19 02:47:08;;;;;;;8.98;3.13;;;;;;;14.02;100.00;96274.50;4994036;28;24521;-76
2022/05/19 02:49:35;;;;;;;3.50;3.20;;;;;;;14.00;100.00;96268.56;4993642;28;24425;-76
2022/05/19 02:52:01;;;;;;;6.20;3.20;;;;;;;13.96;100.00;96269.72;4994798;28;24448;-76
2022/05/19 02:54:28;;;;;;;4.45;3.28;;;;;;;13.94;100.00;96268.97;4994392;28;24432;-76
2022/05/19 02:56:54;;;;;;;5.65;3.38;;;;;;;13.95;100.00;96263.66;4994817;28;24430;-75
2022/05/19 02:59:20;;;;;;;4.87;2.97;;;;;;;14.05;100.00;96253.44;4994537;28;24499;-76
2022/05/19 03:01:47;;;;;;;3.38;2.78;;;;;;;13.98;100.00;96260.03;4994356;28;24949;-76
2022/05/19 03:04:15;;;;;;;3.88;3.00;;;;;;;13.73;100.00;96258.25;4994672;28;24831;-76
2022/05/19 03:06:41;;;;;;;4.40;2.70;;;;;;;13.71;100.00;96250.53;4994341;28;24477;-76
2022/05/19 03:09:08;;;;;;;3.70;2.83;;;;;;;13.69;100.00;96247.22;4994353;28;24420;-76
2022/05/19 03:11:35;;;;;;;3.92;3.00;;;;;;;13.66;100.00;96251.78;4994094;28;24499;-75
2022/05/19 03:14:02;;;;;;;3.15;2.47;;;;;;;13.66;100.00;96255.22;4994000;28;24409;-76
2022/05/19 03:16:28;;;;;;;3.00;2.53;;;;;;;13.72;100.00;96254.81;4993704;28;24613;-76
2022/05/19 03:18:55;;;;;;;3.90;2.90;;;;;;;13.61;100.00;96249.50;4993897;28;25127;-76
2022/05/19 03:21:23;;;;;;;4.70;2.90;;;;;;;13.47;100.00;96247.81;4993995;28;24429;-76
2022/05/19 03:23:49;;;;;;;4.60;3.00;;;;;;;13.44;100.00;96252.41;4993639;28;24448;-76
2022/05/19 03:26:16;;;;;;;8.50;3.00;;;;;;;13.42;100.00;96257.72;4993709;28;24942;-75
2022/05/19 03:28:42;;;;;;;4.85;3.03;;;;;;;13.42;100.00;96249.91;4994012;28;24432;-76
2022/05/19 03:31:09;;;;;;;3.33;2.75;;;;;;;13.47;100.00;96244.38;4993655;28;24444;-76
2022/05/19 03:33:35;;;;;;;3.05;2.75;;;;;;;13.42;100.00;96259.44;4993826;28;24425;-74
2022/05/19 03:36:04;;;;;;;4.20;3.13;;;;;;;13.41;100.00;96263.00;4992964;28;24970;-76
2022/05/19 03:38:32;;;;;;;3.90;2.97;;;;;;;13.50;100.00;96260.63;4993269;28;24417;-76
2022/05/19 03:40:58;;;;;;;8.15;2.88;;;;;;;13.58;100.00;96254.91;4992690;28;24939;-76
2022/05/19 03:43:25;;;;;;;4.63;3.13;;;;;;;13.64;100.00;96261.47;4993780;28;24819;-76
2022/05/19 03:45:52;;;;;;;3.65;2.90;;;;;;;13.62;100.00;96258.16;4993956;28;24456;-76
2022/05/19 03:48:18;;;;;;;3.13;2.90;;;;;;;13.61;100.00;96267.72;4992946;28;24975;-75
2022/05/19 03:50:46;;;;;;;2.97;2.55;;;;;;;13.63;100.00;96265.84;4992582;28;24471;-75
2022/05/19 03:53:13;;;;;;;3.42;2.85;;;;;;;13.62;100.00;96261.56;4992432;28;24425;-74
2022/05/19 03:55:41;;;;;;;3.53;2.97;;;;;;;13.64;100.00;96259.69;4992349;28;24839;-75
2022/05/19 03:58:07;;;;;;;4.05;3.10;;;;;;;13.54;100.00;96256.06;4992466;28;24429;-74
2022/05/19 04:00:35;;;;;;;3.50;3.15;;;;;;;13.57;100.00;96258.44;4992424;28;24516;-75
2022/05/19 04:03:01;;;;;;;4.00;3.20;;;;;;;13.66;100.00;96255.22;4995876;28;24417;-73
2022/05/19 04:05:29;;;;;;;4.13;3.20;;;;;;;13.70;100.00;96254.06;4996337;28;24472;-75
2022/05/19 04:07:55;;;;;;;4.78;3.22;;;;;;;13.74;100.00;96254.72;4996432;28;24451;-75
2022/05/19 04:10:22;;;;;;;4.88;3.45;;;;;;;13.76;100.00;96258.06;4996519;28;24421;-75
2022/05/19 04:12:50;;;;;;;5.07;3.08;;;;;;;13.78;100.00;96254.38;4997515;28;25001;-74
2022/05/19 04:15:17;;;;;;;4.03;3.30;;;;;;;13.87;100.00;96262.50;5001501;28;24432;-75
2022/05/19 04:17:43;;;;;;;4.75;3.17;;;;;;;13.90;100.00;96251.88;5005647;28;24444;-75
2022/05/19 04:23:32;;;;;;;3.25;2.85;;;;;;;13.93;100.00;96251.69;4999708;28;24388;-75
2022/05/19 04:25:59;;;;;;;4.68;3.45;;;;;;;13.99;100.00;96249.50;4997522;28;24448;-74
2022/05/19 04:28:27;;;;;;;6.82;3.22;;;;;;;14.11;100.00;96250.41;4998168;28;24429;-74
2022/05/19 04:30:53;;;;;;;4.03;3.28;;;;;;;14.14;100.00;96260.63;4994513;28;24440;-75
2022/05/19 04:33:20;;;;;;;9.10;3.38;;;;;;;14.11;100.00;96263.44;4989926;28;25016;-75
2022/05/19 04:35:47;;;;;;;8.23;3.00;;;;;;;14.12;100.00;96270.31;4991286;28;24449;-76
2022/05/19 04:38:17;;;;;;;4.10;2.88;;;;;;;14.11;100.00;96270.44;4995374;28;24440;-74
2022/05/19 04:40:47;;;;;;;8.50;3.30;;;;;;;14.23;100.00;96267.78;4996282;28;24440;-75
2022/05/19 04:43:14;;;;;;;4.60;3.05;;;;;;;14.23;100.00;96270.41;4998613;28;24519;-75
2022/05/19 04:45:42;;;;;;;5.70;3.50;;;;;;;14.23;100.00;96274.78;4995192;28;24437;-76
2022/05/19 04:48:09;;;;;;;3.40;3.10;;;;;;;14.25;100.00;96272.91;4996376;28;24437;-76
2022/05/19 04:50:36;;;;;;;4.13;3.33;;;;;;;14.16;100.00;96271.75;4996446;28;24441;-76
2022/05/19 04:53:02;;;;;;;3.97;3.03;;;;;;;14.25;100.00;96278.94;4996528;28;24459;-74
2022/05/19 04:55:28;;;;;;;4.63;3.00;;;;;;;14.37;100.00;96281.66;4996443;28;24804;-76
2022/05/19 04:57:55;;;;;;;4.25;3.00;;;;;;;14.43;100.00;96283.84;4996567;28;25001;-76
2022/05/19 05:00:22;;;;;;;4.28;3.40;;;;;;;14.44;100.00;96293.31;4996266;28;24997;-76
2022/05/19 05:02:50;;;;;;;5.13;3.22;;;;;;;14.49;100.00;96286.00;4996504;28;24440;-76
2022/05/19 05:05:17;;;;;;;5.00;3.25;;;;;;;14.61;100.00;96282.56;4992443;28;24452;-76
2022/05/19 05:07:43;;;;;;;8.52;4.05;;;;;;;14.71;100.00;96286.16;4997125;28;24458;-76
2022/05/19 05:10:10;;;;;;;10.73;4.28;;;;;;;14.55;100.00;96280.38;4998334;28;24441;-77
2022/05/19 05:12:37;;;;;;;11.50;4.32;;;;;;;14.56;100.00;96276.84;4997560;28;24483;-76
2022/05/19 05:15:04;;;;;;;8.95;4.30;;;;;;;14.51;100.00;96287.59;4997984;28;24503;-77
2022/05/19 05:17:31;;;;;;;11.07;4.30;;;;;;;14.50;100.00;96280.72;4998376;28;24448;-77
2022/05/19 05:19:59;;;;;;;11.70;4.68;;;;;;;14.42;100.00;96292.56;4998326;28;24511;-77
2022/05/19 05:22:25;;;;;;;8.82;4.35;;;;;;;14.55;100.00;96285.59;4998440;28;24503;-77
2022/05/19 05:24:51;;;;;;;7.68;3.95;;;;;;;14.53;100.00;96290.06;4996873;28;24437;-77
2022/05/19 05:27:18;;;;;;;13.35;4.07;;;;;;;14.61;100.00;96293.00;4997343;28;24495;-77
2022/05/19 05:29:44;;;;;;;7.63;3.88;;;;;;;14.56;100.00;96287.25;4997727;28;24448;-74
2022/05/19 05:32:11;;;;;;;12.93;4.63;;;;;;;14.51;100.00;96287.59;4997430;28;24544;-77
2022/05/19 05:34:37;;;;;;;8.23;4.35;;;;;;;14.62;100.00;96286.84;4997555;28;24449;-74
2022/05/19 05:37:06;;;;;;;5.63;3.50;;;;;;;14.64;100.00;96292.75;4996902;28;24433;-74
2022/05/19 05:39:33;;;;;;;4.35;3.20;;;;;;;14.74;100.00;96296.38;4997035;28;24472;-74
2022/05/19 05:41:59;;;;;;;5.40;3.50;;;;;;;14.84;100.00;96295.75;4997035;28;24440;-75
2022/05/19 05:44:25;;;;;;;5.07;3.35;;;;;;;14.95;100.00;96299.25;4993583;28;24994;-75
2022/05/19 05:46:52;;;;;;;5.35;3.50;;;;;;;15.00;100.00;96294.53;4992982;28;24460;-76
2022/05/19 05:49:19;;;;;;;9.75;3.63;;;;;;;15.23;100.00;96297.25;4993624;28;24446;-77
2022/05/19 05:51:46;;;;;;;3.83;2.90;;;;;;;15.23;99.88;96295.47;4993853;28;24847;-76
2022/05/19 05:54:14;;;;;;;6.15;3.25;;;;;;;15.40;100.00;96294.25;4993300;28;24441;-76
2022/05/19 05:56:40;;;;;;;6.15;3.05;;;;;;;15.39;99.36;96296.97;4992561;28;24444;-76
2022/05/19 05:59:06;;;;;;;11.75;4.03;;;;;;;15.42;99.83;96302.78;4991285;28;24448;-76
2022/05/19 06:01:33;;;;;;;16.90;4.75;;;;;;;15.51;100.00;96303.06;4993189;28;24441;-73
2022/05/19 06:04:01;;;;;;;11.67;4.90;;;;;;;15.53;100.00;96304.59;4992089;28;25002;-73
2022/05/19 06:06:28;;;;;;;10.98;4.60;;;;;;;15.84;98.20;96307.59;4992627;28;25033;-73
2022/05/19 06:08:55;;;;;;;9.90;4.57;;;;;;;16.00;96.17;96308.06;4993406;28;24409;-74
2022/05/19 06:11:23;;;;;;;14.40;5.78;;;;;;;16.25;95.66;96303.59;4994809;28;24436;-74
2022/05/19 06:13:50;;;;;;;9.75;4.60;;;;;;;16.43;95.70;96313.47;4993411;28;24437;-73
2022/05/19 06:16:17;;;;;;;9.55;4.50;;;;;;;16.57;92.95;96304.53;4994550;28;24810;-76
2022/05/19 06:18:44;;;;;;;10.20;3.90;;;;;;;16.65;92.28;96294.31;4988345;28;24669;-73
2022/05/19 06:21:10;;;;;;;13.02;4.15;;;;;;;16.73;89.62;96296.31;4994078;28;24843;-73
2022/05/19 06:23:37;;;;;;;12.80;3.85;;;;;;;17.06;85.74;96305.09;4992536;28;24526;-72
2022/05/19 06:26:04;;;;;;;7.57;3.40;;;;;;;17.33;83.33;96295.00;4992393;28;25032;-68
2022/05/19 06:28:32;;;;;;;5.40;3.13;;;;;;;17.47;83.53;96304.34;4991252;28;25006;-74
2022/05/19 06:30:59;;;;;;;4.60;3.10;;;;;;;17.64;81.19;96300.34;4992513;28;24581;-74
2022/05/19 06:33:27;;;;;;;5.53;3.05;;;;;;;17.81;80.18;96301.59;4991506;28;24447;-74
2022/05/19 06:35:53;;;;;;;5.30;3.17;;;;;;;17.95;78.63;96296.03;4976427;28;24445;-75
2022/05/19 06:38:20;;;;;;;5.43;3.03;;;;;;;18.28;76.71;96297.59;4993527;28;24472;-74
2022/05/19 06:40:47;;;;;;;6.95;3.05;;;;;;;18.45;74.82;96297.94;4993555;28;24512;-74
2022/05/19 06:43:15;;;;;;;6.70;2.95;;;;;;;18.90;74.62;96302.81;4992213;28;24433;-74
2022/05/19 06:45:44;;;;;;;5.35;2.67;;;;;;;19.29;70.33;96304.53;4990540;28;24441;-74
2022/05/19 06:48:10;;;;;;;4.63;2.42;;;;;;;19.52;68.72;96310.34;4992144;28;24509;-74
2022/05/19 06:50:37;;;;;;;5.78;3.00;;;;;;;19.76;69.38;96302.09;4993270;28;24496;-74
2022/05/19 06:53:04;;;;;;;5.10;2.60;;;;;;;19.76;67.52;96309.13;4991245;28;25070;-75
2022/05/19 06:55:32;;;;;;;3.33;2.40;;;;;;;19.98;70.08;96307.97;4992385;28;24444;-75
2022/05/19 06:57:59;;;;;;;3.67;2.50;;;;;;;20.29;66.45;96303.34;4992681;28;24432;-76
2022/05/19 07:00:45;;;;;;;5.18;2.50;;;;;;;20.25;66.64;96305.44;4992138;28;24440;-75
2022/05/19 07:03:13;;;;;;;5.47;2.47;;;;;;;20.43;65.44;96309.94;4979413;28;24444;-75
2022/05/19 07:05:40;;;;;;;3.47;2.30;;;;;;;20.63;64.02;96301.03;4993779;28;24437;-74
2022/05/19 07:08:07;;;;;;;4.28;2.33;;;;;;;20.81;62.63;96308.16;4992616;28;24472;-75
2022/05/19 07:10:34;;;;;;;4.70;2.25;;;;;;;20.60;62.12;96309.22;4992300;28;24992;-74
2022/05/19 07:13:01;;;;;;;6.97;2.60;;;;;;;20.75;62.71;96302.50;4975473;28;24457;-74
2022/05/19 07:15:28;;;;;;;9.68;2.38;;;;;;;21.00;63.00;96308.88;4998140;28;24449;-74
2022/05/19 07:17:55;;;;;;;4.85;2.92;;;;;;;21.13;61.56;96310.31;4999664;28;24436;-74
2022/05/19 07:23:08;;;;;;;6.57;2.40;;;;;;;21.33;61.00;96309.25;4979998;28;24494;-74
2022/05/19 07:25:35;;;;;;;6.13;2.75;;;;;;;21.38;60.80;96307.00;4991084;28;24441;-73
2022/05/19 07:28:02;;;;;;;4.88;2.90;;;;;;;21.27;61.56;96296.63;4991421;28;24448;-73
2022/05/19 07:30:28;;;;;;;8.27;2.43;;;;;;;21.48;61.83;96315.66;4991392;28;24554;-74
2022/05/19 07:32:55;;;;;;;3.00;2.20;;;;;;;21.78;61.35;96312.78;4991282;28;24480;-74
2022/05/19 07:35:24;;;;;;;7.35;2.75;;;;;;;21.82;61.21;96309.69;4991170;28;24815;-74
2022/05/19 07:37:51;;;;;;;7.05;3.38;;;;;;;22.10;60.15;96306.91;4991906;28;24421;-73
2022/05/19 07:40:18;;;;;;;3.95;2.50;;;;;;;22.08;60.31;96307.06;4991333;28;24433;-73
2022/05/19 07:42:44;;;;;;;6.32;2.60;;;;;;;22.30;59.42;96307.59;4991017;28;25182;-74
2022/05/19 07:45:12;;;;;;;3.50;2.40;;;;;;;22.14;60.42;96309.16;4990501;28;24444;-73
2022/05/19 07:47:39;;;;;;;7.47;2.85;;;;;;;22.35;59.00;96302.66;4991028;28;24440;-73
2022/05/19 07:50:07;;;;;;;9.07;3.42;;;;;;;22.60;59.93;96306.25;4991006;28;24440;-73
2022/05/19 07:52:34;;;;;;;4.95;2.58;;;;;;;22.61;59.11;96306.09;4990949;28;24460;-73
2022/05/19 07:55:01;;;;;;;6.25;2.55;;;;;;;22.77;59.18;96312.44;4990625;28;24448;-74
2022/05/19 07:57:28;;;;;;;7.97;2.58;;;;;;;22.70;58.34;96304.34;4991071;28;24473;-72
2022/05/19 07:59:54;;;;;;;8.40;2.85;;;;;;;22.98;59.94;96304.94;4990915;28;24460;-74
2022/05/19 08:02:21;;;;;;;7.60;2.92;;;;;;;23.08;60.70;96305.66;4991597;28;24479;-74
2022/05/19 08:04:48;;;;;;;3.85;2.47;;;;;;;23.60;57.89;96307.25;4991235;28;24907;-74
2022/05/19 08:07:15;;;;;;;4.95;2.58;;;;;;;23.91;56.96;96310.91;4991817;28;24436;-75
2022/05/19 08:17:54;;;;;;;2.75;2.38;;;;;;;24.01;58.04;96305.44;4991226;28;24521;-75
2022/05/19 08:20:21;;;;;;;4.03;2.60;;;;;;;24.01;56.96;96312.56;4991066;28;24437;-75
2022/05/19 08:22:47;;;;;;;3.38;2.25;;;;;;;24.01;58.22;96308.09;4990726;28;24437;-75
2022/05/19 08:25:16;;;;;;;5.43;2.78;;;;;;;24.19;56.20;96307.91;4990535;28;24436;-75
2022/05/19 08:27:44;;;;;;;5.75;2.90;;;;;;;24.21;56.10;96299.78;4990801;28;24822;-76
2022/05/19 08:30:12;;;;;;;3.47;2.10;;;;;;;24.45;58.13;96309.56;4990917;28;24445;-75
2022/05/19 08:32:39;;;;;;;3.30;2.67;;;;;;;24.58;55.24;96302.75;4990541;28;25013;-75
2022/05/19 08:35:07;;;;;;;10.35;2.80;;;;;;;24.69;58.96;96298.03;4990676;28;24507;-76
2022/05/19 08:37:34;;;;;;;3.65;2.55;;;;;;;24.72;55.98;96297.72;4991602;28;24428;-77
2022/05/19 08:40:00;;;;;;;3.28;2.53;;;;;;;24.82;55.52;96296.50;4991091;28;24489;-76
2022/05/19 08:42:32;;;;;;;9.15;2.40;;;;;;;24.97;55.05;96299.25;4991701;28;24452;-76
2022/05/19 08:45:04;;;;;;;4.40;2.67;;;;;;;24.84;54.44;96291.88;4991030;28;24428;-76
2022/05/19 08:47:34;;;;;;;4.57;2.72;;;;;;;25.37;55.81;96297.41;4992180;28;24425;-75
2022/05/19 08:50:03;;;;;;;4.18;2.55;;;;;;;25.62;53.64;96292.75;4995439;28;24448;-76
2022/05/19 08:52:38;;;;;;;11.57;2.78;;;;;;;25.77;56.50;96291.00;4995274;28;24452;-77
2022/05/19 08:55:06;;;;;;;7.18;2.95;;;;;;;26.02;52.94;96293.47;4994277;28;25009;-76
2022/05/19 08:57:40;;;;;;;6.28;3.15;;;;;;;26.45;53.35;96286.56;4994448;28;24997;-77
2022/05/19 09:00:11;;;;;;;5.20;2.67;;;;;;;26.68;50.96;96285.69;4994715;28;24843;-77
2022/05/19 09:02:41;;;;;;;7.32;2.85;;;;;;;26.91;48.51;96286.38;4994143;28;24565;-76
2022/05/19 09:05:17;;;;;;;5.93;2.80;;;;;;;26.85;48.91;96286.31;4994838;28;24448;-77
2022/05/19 09:08:00;;;;;;;13.48;3.25;;;;;;;26.44;50.45;96289.38;4994451;28;24491;-76
2022/05/19 09:10:43;;;;;;;3.88;2.80;;;;;;;26.23;50.50;96287.47;4994548;28;24428;-76
2022/05/19 09:13:22;;;;;;;7.35;3.00;;;;;;;26.19;51.53;96289.66;4994439;28;24417;-77
2022/05/19 09:15:49;;;;;;;4.85;2.75;;;;;;;26.78;52.85;96289.72;4994137;28;24794;-76
2022/05/19 09:18:19;;;;;;;4.70;2.60;;;;;;;27.12;50.35;96290.97;4994428;28;24962;-76
2022/05/19 09:20:49;;;;;;;4.95;2.78;;;;;;;27.04;49.53;96288.38;4994313;28;24779;-76
2022/05/19 09:23:16;;;;;;;4.63;2.13;;;;;;;26.92;48.84;96289.84;4993903;28;24421;-76
2022/05/19 09:25:50;;;;;;;4.25;2.50;;;;;;;27.08;50.19;96292.31;4994187;28;24499;-77
2022/05/19 09:28:19;;;;;;;6.13;2.30;;;;;;;27.05;51.75;96284.72;4994079;28;24792;-76
2022/05/19 09:30:49;;;;;;;8.47;2.50;;;;;;;26.77;50.23;96290.72;4994118;28;24488;-76
2022/05/19 09:33:18;;;;;;;21.73;2.40;;;;;;;26.85;48.97;96289.78;4993594;28;24451;-76
2022/05/19 09:35:50;;;;;;;4.07;2.78;;;;;;;27.27;55.72;96289.09;4993607;28;24436;-74
2022/05/19 09:38:27;;;;;;;6.18;2.70;;;;;;;27.86;55.93;96287.25;4993661;28;24495;-73
2022/05/19 09:41:00;;;;;;;4.55;2.80;;;;;;;27.79;53.00;96294.34;4993287;28;24433;-75
2022/05/19 09:43:32;;;;;;;5.32;2.58;;;;;;;28.27;53.83;96297.19;4992896;28;24440;-75
2022/05/19 09:46:04;;;;;;;4.97;2.45;;;;;;;28.46;51.61;96296.53;4994302;28;24486;-74
2022/05/19 09:48:34;;;;;;;2.63;2.07;;;;;;;28.65;53.77;96289.66;4993011;28;24499;-73
2022/05/19 09:51:03;;;;;;;3.17;2.63;;;;;;;28.75;51.86;96291.97;4992651;28;24512;-73
2022/05/19 09:53:37;;;;;;;5.15;2.70;;;;;;;28.72;55.07;96295.03;4977272;28;24539;-75
2022/05/19 09:56:08;;;;;;;7.78;2.63;;;;;;;28.65;52.89;96300.31;4992867;28;24448;-73
2022/05/19 09:58:39;;;;;;;5.25;2.72;;;;;;;28.63;52.86;96294.38;4993021;28;24444;-73
2022/05/19 10:01:08;;;;;;;11.40;2.80;;;;;;;28.50;46.06;96295.13;4993068;28;24433;-73
2022/05/19 10:03:38;;;;;;;3.58;2.40;;;;;;;27.99;45.86;96300.66;4991167;28;24441;-74
2022/05/19 10:06:07;;;;;;;3.90;2.45;;;;;;;27.80;46.40;96293.31;4992981;28;24472;-73
2022/05/19 10:08:38;;;;;;;4.47;2.20;;;;;;;28.04;46.81;96295.59;4992932;28;24417;-73
2022/05/19 10:11:21;;;;;;;5.75;2.28;;;;;;;28.37;46.10;96290.53;4992998;28;24505;-74
2022/05/19 10:13:51;;;;;;;6.47;2.60;;;;;;;28.45;44.85;96284.22;4993310;28;24542;-73
2022/05/19 10:16:30;;;;;;;6.22;2.53;;;;;;;28.10;44.50;96292.13;4994785;28;24532;-73
2022/05/19 10:19:11;;;;;;;5.18;2.58;;;;;;;28.39;44.63;96285.81;4991551;28;24432;-74
2022/05/19 10:21:51;;;;;;;3.97;2.13;;;;;;;28.79;46.95;96275.38;4992155;28;24433;-73
2022/05/19 10:24:41;;;;;;;3.45;2.00;;;;;;;28.46;41.58;96286.69;4990655;28;24486;-73
2022/05/19 10:33:18;;;;;;;5.50;2.20;;;;;;;28.28;40.15;96273.00;4971809;28;24479;-73
2022/05/19 10:35:58;;;;;;;4.65;2.63;;;;;;;28.25;38.82;96272.56;4991397;28;24448;-73
2022/05/19 10:38:38;;;;;;;4.55;2.38;;;;;;;28.42;40.25;96264.13;4991837;28;24433;-72
2022/05/19 10:41:12;;;;;;;6.20;2.40;;;;;;;28.39;39.69;96264.50;4991443;28;24433;-73
2022/05/19 10:43:56;;;;;;;2.80;2.10;;;;;;;27.90;39.55;96269.88;4991292;28;24436;-72
2022/05/19 10:46:30;;;;;;;2.70;2.00;;;;;;;27.81;40.73;96257.69;4991326;28;24523;-74
2022/05/19 10:49:35;;;;;;;4.80;2.27;;;;;;;27.80;40.00;96266.72;4985419;28;24444;-74
2022/05/19 10:52:16;;;;;;;7.20;2.40;;;;;;;28.07;39.57;96255.28;4984146;28;24531;-74
2022/05/19 10:54:57;;;;;;;3.90;2.05;;;;;;;28.27;38.80;96257.25;4981307;28;24550;-73
2022/05/19 10:57:50;;;;;;;4.45;2.10;;;;;;;28.66;41.30;96243.34;4983673;28;24444;-73
2022/05/19 11:00:22;;;;;;;14.32;2.70;;;;;;;28.92;38.75;96237.28;4983471;28;21252;-73
2022/05/19 11:03:24;;;;;;;4.30;2.22;;;;;;;29.27;38.03;96245.22;4982002;28;24468;-73
2022/05/19 11:06:05;;;;;;;4.73;2.53;;;;;;;29.48;36.79;96238.88;4980679;28;24521;-73
2022/05/19 11:08:44;;;;;;;3.63;2.20;;;;;;;29.63;35.74;96240.41;4981780;28;24437;-73
2022/05/19 11:11:18;;;;;;;6.87;2.60;;;;;;;29.68;34.87;96236.28;4980371;28;24799;-73
2022/05/19 11:13:56;;;;;;;4.82;2.38;;;;;;;29.62;34.87;96241.41;4981304;28;24569;-73
2022/05/19 11:16:33;;;;;;;4.30;2.10;;;;;;;29.37;34.44;96240.34;4981231;28;24990;-73
2022/05/19 11:19:06;;;;;;;3.05;2.10;;;;;;;29.47;34.84;96234.59;4981603;28;24529;-73
2022/05/19 11:21:39;;;;;;;4.85;2.33;;;;;;;29.79;36.34;96230.34;4980726;28;24430;-73
2022/05/19 11:24:10;;;;;;;4.10;2.13;;;;;;;29.45;35.74;96232.13;4981390;28;24436;-73
2022/05/19 11:26:42;;;;;;;5.15;2.38;;;;;;;29.11;34.42;96228.59;4981322;28;24438;-73
2022/05/19 11:29:17;;;;;;;7.30;2.80;;;;;;;28.82;35.52;96231.53;4981222;28;24440;-73
2022/05/19 11:31:53;;;;;;;4.65;2.40;;;;;;;28.85;35.51;96242.63;4979520;28;24971;-73
2022/05/19 11:34:28;;;;;;;8.07;2.97;;;;;;;29.23;36.33;96244.00;4978803;28;24860;-73
2022/05/19 11:37:02;;;;;;;3.33;2.17;;;;;;;29.26;34.07;96241.75;4979746;28;24444;-73
2022/05/19 11:39:33;;;;;;;5.03;2.67;;;;;;;29.22;34.48;96237.00;4980510;28;24523;-73
2022/05/19 11:42:11;;;;;;;5.00;2.50;;;;;;;29.21;35.61;96232.69;4981483;28;24429;-73
2022/05/19 11:44:38;;;;;;;5.35;2.40;;;;;;;29.27;34.13;96224.72;4980820;28;24441;-73
2022/05/19 11:47:10;;;;;;;6.82;2.33;;;;;;;29.72;33.36;96224.19;4981205;28;24444;-73
2022/05/19 11:55:34;;;;;;;6.95;2.50;;;;;;;30.07;33.45;96227.44;4979258;28;25022;-73
2022/05/19 11:58:07;;;;;;;5.50;2.35;;;;;;;29.95;32.28;96229.91;4979195;28;24457;-73
2022/05/19 12:00:37;;;;;;;5.43;2.35;;;;;;;29.81;33.56;96226.44;4980057;28;24452;-73
2022/05/19 12:03:09;;;;;;;9.37;2.60;;;;;;;30.00;33.70;96224.78;4981089;28;24437;-73
2022/05/19 12:05:43;;;;;;;5.63;2.53;;;;;;;29.90;32.88;96216.38;4980585;28;24522;-73
2022/05/19 12:08:19;;;;;;;4.25;2.15;;;;;;;30.05;30.87;96211.63;4980931;28;24499;-73
2022/05/19 12:10:50;;;;;;;9.25;2.38;;;;;;;30.20;30.50;96207.94;4980655;28;24440;-73